MSC Cordoba — A8OF8 — position and weather

sailwx.info

Track history (hours):
 
Tides and Currents Weather Stations Pressure Air Temp Water Temp Dewpoint Dewpoint Depression Visibility Wind Speed Wind Dir Waves Ship Positions

MSC Cordoba

Last reported at 2015-Apr-01 23:33 UTC. Time now 2015-Apr-02 00:11 UTC.
Position N 37°35' W 009°45'.

Length 274 m; draft 12.9 m.

Type: Ship (hazmat cat A). MMSI: 636091473.

Date/timePositionNaut miles runAvg speedWind from/ knotsBaromVisibWave heightAir tempDewpointWater temp
2015-Apr-01 23:33N 37°35' W 009°45'2020.3
2015-Apr-01 22:33N 37°55' W 009°50'2120.7
2015-Apr-01 21:33N 38°15' W 009°57'2120.7
2015-Apr-01 20:33N 38°35' W 010°05'2220.6
2015-Apr-01 19:30N 38°56' W 010°07'7120.9
2015-Apr-01 16:04N 40°08' W 010°07'74017.0
2015-Mar-30 20:26N 50°26' W 000°29'1717.2
2015-Mar-30 19:28N 50°31' W 000°04'1517.0
2015-Mar-30 18:33N 50°35' E 000°20'1717.0
2015-Mar-30 17:33N 50°41' E 000°44'1918.5
2015-Mar-30 16:33N 50°53' E 001°07'2020.0
2015-Mar-30 15:33N 51°06' E 001°31'1919.7
2015-Mar-30 14:34N 51°20' E 001°54'1616.0
2015-Mar-30 13:33N 51°21' E 002°19'1414.6
2015-Mar-30 12:34N 51°23' E 002°42'9 8.8
2015-Mar-30 11:33N 51°23' E 002°57'1414.3
2015-Mar-30 10:34N 51°24' E 003°19'1010.4
2015-Mar-30 09:33N 51°26' E 003°36'8 8.3
2015-Mar-30 08:33N 51°21' E 003°47'1010.1
2015-Mar-30 07:34N 51°25' E 004°02'9 9.2
2015-Mar-30 06:34N 51°21' E 004°15'1 1.1
2015-Mar-30 05:33N 51°21' E 004°17'1 1.4
2015-Mar-30 04:33N 51°20' E 004°18'1 0.7
2015-Mar-30 03:27N 51°19' E 004°20'0 0.0
2015-Mar-30 02:30N 51°19' E 004°20'0 0.0
2015-Mar-30 01:32N 51°19' E 004°20'0 0.0
2015-Mar-30 00:32N 51°19' E 004°20'0 0.0
2015-Mar-29 23:32N 51°19' E 004°20'0 0.0
2015-Mar-29 22:31N 51°19' E 004°20'0 0.0
2015-Mar-29 21:25N 51°19' E 004°20'0 0.0
2015-Mar-29 20:33N 51°19' E 004°20'0 0.0
2015-Mar-29 19:06N 51°19' E 004°20'0 0.0
2015-Mar-29 18:32N 51°19' E 004°20'0 0.0
2015-Mar-29 16:25N 51°19' E 004°20'0 0.0
2015-Mar-29 15:28N 51°19' E 004°20'0 0.0
2015-Mar-29 14:22N 51°19' E 004°20'0 0.0
2015-Mar-29 13:33N 51°19' E 004°20'0 0.0
2015-Mar-29 12:33N 51°19' E 004°20'0 0.0
2015-Mar-29 11:32N 51°19' E 004°20'0 0.0
2015-Mar-29 10:23N 51°19' E 004°20'0 0.0
2015-Mar-29 09:28N 51°19' E 004°20'0 0.0
2015-Mar-29 08:31N 51°19' E 004°20'0 0.0
2015-Mar-29 07:30N 51°19' E 004°20'0 0.0
2015-Mar-29 06:30N 51°19' E 004°20'0 0.0
2015-Mar-29 05:27N 51°19' E 004°20'0 0.0
2015-Mar-29 04:05N 51°19' E 004°20'0 0.0
2015-Mar-29 03:29N 51°19' E 004°20'0 0.0
2015-Mar-29 02:28N 51°19' E 004°20'0 0.0
2015-Mar-29 01:19N 51°19' E 004°20'0 0.0
2015-Mar-29 00:31N 51°19' E 004°20'0 0.0
2015-Mar-28 23:33N 51°19' E 004°20'0 0.0
2015-Mar-28 22:30N 51°19' E 004°20'0 0.0
2015-Mar-28 21:32N 51°19' E 004°20'0 0.0
2015-Mar-28 20:23N 51°19' E 004°20'0 0.0
2015-Mar-28 19:31N 51°19' E 004°20'0 0.0
2015-Mar-28 18:25N 51°19' E 004°20'0 0.0
2015-Mar-28 17:30N 51°19' E 004°20'0 0.0
2015-Mar-28 16:33N 51°19' E 004°20'0 0.3
2015-Mar-28 15:33N 51°20' E 004°19'2 1.6
2015-Mar-28 14:34N 51°21' E 004°17'2 1.7
2015-Mar-28 13:33N 51°21' E 004°15'8 8.4
2015-Mar-28 12:34N 51°24' E 004°02'8 8.2
2015-Mar-28 11:34N 51°21' E 003°50'1010.3
2015-Mar-28 10:33N 51°26' E 003°36'9 8.9
2015-Mar-28 09:33N 51°24' E 003°22'1514.8
2015-Mar-28 08:33N 51°23' E 002°58'1212.4
2015-Mar-28 07:34N 51°22' E 002°38'3 3.3
2015-Mar-28 06:32N 51°24' E 002°34'0 0.0
2015-Mar-28 05:31N 51°24' E 002°34'0 0.0
2015-Mar-28 04:25N 51°24' E 002°34'0 0.0
2015-Mar-28 03:33N 51°24' E 002°34'0 0.1
2015-Mar-28 02:30N 51°24' E 002°34'0 0.0
2015-Mar-28 01:29N 51°24' E 002°34'0 0.1
2015-Mar-28 00:29N 51°24' E 002°34'0 0.0
2015-Mar-27 23:29N 51°24' E 002°34'0 0.0
2015-Mar-27 22:25N 51°24' E 002°34'0 0.0
2015-Mar-27 21:31N 51°24' E 002°34'3 2.9
2015-Mar-27 20:32N 51°22' E 002°31'1514.8
2015-Mar-27 19:33N 51°19' E 002°08'1918.6
2015-Mar-27 18:33N 51°33' E 001°50'1717.0
2015-Mar-27 17:33N 51°50' E 001°42'1111.4
2015-Mar-27 16:33N 51°56' E 001°26'6 5.5
2015-Mar-27 15:29N 51°58' E 001°17'0 0.0
2015-Mar-27 14:31N 51°58' E 001°17'0 0.0
2015-Mar-27 13:31N 51°58' E 001°17'0 0.0
2015-Mar-27 12:29N 51°58' E 001°17'0 0.0
2015-Mar-27 11:32N 51°58' E 001°17'0 0.0
2015-Mar-27 10:31N 51°58' E 001°17'0 0.0
2015-Mar-27 09:31N 51°58' E 001°17'0 0.0
2015-Mar-27 08:30N 51°58' E 001°17'0 0.0
2015-Mar-27 07:33N 51°58' E 001°17'0 0.0
2015-Mar-27 06:32N 51°58' E 001°17'0 0.0
2015-Mar-27 05:32N 51°58' E 001°17'0 0.0
2015-Mar-27 04:32N 51°58' E 001°17'0 0.0
2015-Mar-27 03:31N 51°58' E 001°17'0 0.0
2015-Mar-27 02:31N 51°58' E 001°17'0 0.0
2015-Mar-27 01:33N 51°58' E 001°17'0 0.0
2015-Mar-27 00:33N 51°58' E 001°17'0 0.0
2015-Mar-26 23:32N 51°58' E 001°17'1 1.1
2015-Mar-26 22:33N 51°57' E 001°18'9 9.2
2015-Mar-26 21:33N 51°56' E 001°33'8 8.2
2015-Mar-26 20:34N 51°52' E 001°44'7 6.6
2015-Mar-26 19:33N 51°46' E 001°51'1615.9
2015-Mar-26 18:33N 51°34' E 002°07'2222.0
2015-Mar-26 17:33N 51°18' E 001°42'2019.4
2015-Mar-26 16:31N 50°59' E 001°32'2020.7
2015-Mar-26 15:33N 50°41' E 001°18'2120.1
2015-Mar-26 14:30N 50°29' E 000°51'1920.5
2015-Mar-26 13:33N 50°24' E 000°22'83317.3
2015-Mar-24 13:28N 38°34' W 009°51'3913.3
2015-Mar-24 10:32N 37°57' W 009°38'1414.0
2015-Mar-24 09:31N 37°43' W 009°34'1414.3
2015-Mar-24 08:33N 37°29' W 009°30'7014.1
2015-Mar-24 03:32N 36°36' W 008°33'15419.3
2015-Mar-23 19:33N 35°60' W 005°27'28221.2
2015-Mar-23 06:16N 36°42' E 000°19'  
Track history (hours):
 
Tides and Currents Weather Stations Pressure Air Temp Water Temp Dewpoint Dewpoint Depression Visibility Wind Speed Wind Dir Waves Ship Positions

MSC Cordoba

Last reported at 2015-Apr-01 23:33 UTC. Time now 2015-Apr-02 00:11 UTC.
Position N 37°35' W 009°45'.

Length 274 m; draft 12.9 m.

Type: Ship (hazmat cat A). MMSI: 636091473.

Date/timePositionNaut miles runAvg speedWind from/ knotsBaromVisibWave heightAir tempDewpointWater temp
2015-Apr-01 23:33N 37°35' W 009°45'2020.3
2015-Apr-01 22:33N 37°55' W 009°50'2120.7
2015-Apr-01 21:33N 38°15' W 009°57'2120.7
2015-Apr-01 20:33N 38°35' W 010°05'2220.6
2015-Apr-01 19:30N 38°56' W 010°07'7120.9
2015-Apr-01 16:04N 40°08' W 010°07'74017.0
2015-Mar-30 20:26N 50°26' W 000°29'1717.2
2015-Mar-30 19:28N 50°31' W 000°04'1517.0
2015-Mar-30 18:33N 50°35' E 000°20'1717.0
2015-Mar-30 17:33N 50°41' E 000°44'1918.5
2015-Mar-30 16:33N 50°53' E 001°07'2020.0
2015-Mar-30 15:33N 51°06' E 001°31'1919.7
2015-Mar-30 14:34N 51°20' E 001°54'1616.0
2015-Mar-30 13:33N 51°21' E 002°19'1414.6
2015-Mar-30 12:34N 51°23' E 002°42'9 8.8
2015-Mar-30 11:33N 51°23' E 002°57'1414.3
2015-Mar-30 10:34N 51°24' E 003°19'1010.4
2015-Mar-30 09:33N 51°26' E 003°36'8 8.3
2015-Mar-30 08:33N 51°21' E 003°47'1010.1
2015-Mar-30 07:34N 51°25' E 004°02'9 9.2
2015-Mar-30 06:34N 51°21' E 004°15'1 1.1
2015-Mar-30 05:33N 51°21' E 004°17'1 1.4
2015-Mar-30 04:33N 51°20' E 004°18'1 0.7
2015-Mar-30 03:27N 51°19' E 004°20'0 0.0
2015-Mar-30 02:30N 51°19' E 004°20'0 0.0
2015-Mar-30 01:32N 51°19' E 004°20'0 0.0
2015-Mar-30 00:32N 51°19' E 004°20'0 0.0
2015-Mar-29 23:32N 51°19' E 004°20'0 0.0
2015-Mar-29 22:31N 51°19' E 004°20'0 0.0
2015-Mar-29 21:25N 51°19' E 004°20'0 0.0
2015-Mar-29 20:33N 51°19' E 004°20'0 0.0
2015-Mar-29 19:06N 51°19' E 004°20'0 0.0
2015-Mar-29 18:32N 51°19' E 004°20'0 0.0
2015-Mar-29 16:25N 51°19' E 004°20'0 0.0
2015-Mar-29 15:28N 51°19' E 004°20'0 0.0
2015-Mar-29 14:22N 51°19' E 004°20'0 0.0
2015-Mar-29 13:33N 51°19' E 004°20'0 0.0
2015-Mar-29 12:33N 51°19' E 004°20'0 0.0
2015-Mar-29 11:32N 51°19' E 004°20'0 0.0
2015-Mar-29 10:23N 51°19' E 004°20'0 0.0
2015-Mar-29 09:28N 51°19' E 004°20'0 0.0
2015-Mar-29 08:31N 51°19' E 004°20'0 0.0
2015-Mar-29 07:30N 51°19' E 004°20'0 0.0
2015-Mar-29 06:30N 51°19' E 004°20'0 0.0
2015-Mar-29 05:27N 51°19' E 004°20'0 0.0
2015-Mar-29 04:05N 51°19' E 004°20'0 0.0
2015-Mar-29 03:29N 51°19' E 004°20'0 0.0
2015-Mar-29 02:28N 51°19' E 004°20'0 0.0
2015-Mar-29 01:19N 51°19' E 004°20'0 0.0
2015-Mar-29 00:31N 51°19' E 004°20'0 0.0
2015-Mar-28 23:33N 51°19' E 004°20'0 0.0
2015-Mar-28 22:30N 51°19' E 004°20'0 0.0
2015-Mar-28 21:32N 51°19' E 004°20'0 0.0
2015-Mar-28 20:23N 51°19' E 004°20'0 0.0
2015-Mar-28 19:31N 51°19' E 004°20'0 0.0
2015-Mar-28 18:25N 51°19' E 004°20'0 0.0
2015-Mar-28 17:30N 51°19' E 004°20'0 0.0
2015-Mar-28 16:33N 51°19' E 004°20'0 0.3
2015-Mar-28 15:33N 51°20' E 004°19'2 1.6
2015-Mar-28 14:34N 51°21' E 004°17'2 1.7
2015-Mar-28 13:33N 51°21' E 004°15'8 8.4
2015-Mar-28 12:34N 51°24' E 004°02'8 8.2
2015-Mar-28 11:34N 51°21' E 003°50'1010.3
2015-Mar-28 10:33N 51°26' E 003°36'9 8.9
2015-Mar-28 09:33N 51°24' E 003°22'1514.8
2015-Mar-28 08:33N 51°23' E 002°58'1212.4
2015-Mar-28 07:34N 51°22' E 002°38'3 3.3
2015-Mar-28 06:32N 51°24' E 002°34'0 0.0
2015-Mar-28 05:31N 51°24' E 002°34'0 0.0
2015-Mar-28 04:25N 51°24' E 002°34'0 0.0
2015-Mar-28 03:33N 51°24' E 002°34'0 0.1
2015-Mar-28 02:30N 51°24' E 002°34'0 0.0
2015-Mar-28 01:29N 51°24' E 002°34'0 0.1
2015-Mar-28 00:29N 51°24' E 002°34'0 0.0
2015-Mar-27 23:29N 51°24' E 002°34'0 0.0
2015-Mar-27 22:25N 51°24' E 002°34'0 0.0
2015-Mar-27 21:31N 51°24' E 002°34'3 2.9
2015-Mar-27 20:32N 51°22' E 002°31'1514.8
2015-Mar-27 19:33N 51°19' E 002°08'1918.6
2015-Mar-27 18:33N 51°33' E 001°50'1717.0
2015-Mar-27 17:33N 51°50' E 001°42'1111.4
2015-Mar-27 16:33N 51°56' E 001°26'6 5.5
2015-Mar-27 15:29N 51°58' E 001°17'0 0.0
2015-Mar-27 14:31N 51°58' E 001°17'0 0.0
2015-Mar-27 13:31N 51°58' E 001°17'0 0.0
2015-Mar-27 12:29N 51°58' E 001°17'0 0.0
2015-Mar-27 11:32N 51°58' E 001°17'0 0.0
2015-Mar-27 10:31N 51°58' E 001°17'0 0.0
2015-Mar-27 09:31N 51°58' E 001°17'0 0.0
2015-Mar-27 08:30N 51°58' E 001°17'0 0.0
2015-Mar-27 07:33N 51°58' E 001°17'0 0.0
2015-Mar-27 06:32N 51°58' E 001°17'0 0.0
2015-Mar-27 05:32N 51°58' E 001°17'0 0.0
2015-Mar-27 04:32N 51°58' E 001°17'0 0.0
2015-Mar-27 03:31N 51°58' E 001°17'0 0.0
2015-Mar-27 02:31N 51°58' E 001°17'0 0.0
2015-Mar-27 01:33N 51°58' E 001°17'0 0.0
2015-Mar-27 00:33N 51°58' E 001°17'0 0.0
2015-Mar-26 23:32N 51°58' E 001°17'1 1.1
2015-Mar-26 22:33N 51°57' E 001°18'9 9.2
2015-Mar-26 21:33N 51°56' E 001°33'8 8.2
2015-Mar-26 20:34N 51°52' E 001°44'7 6.6
2015-Mar-26 19:33N 51°46' E 001°51'1615.9
2015-Mar-26 18:33N 51°34' E 002°07'2222.0
2015-Mar-26 17:33N 51°18' E 001°42'2019.4
2015-Mar-26 16:31N 50°59' E 001°32'2020.7
2015-Mar-26 15:33N 50°41' E 001°18'2120.1
2015-Mar-26 14:30N 50°29' E 000°51'1920.5
2015-Mar-26 13:33N 50°24' E 000°22'83317.3
2015-Mar-24 13:28N 38°34' W 009°51'3913.3
2015-Mar-24 10:32N 37°57' W 009°38'1414.0
2015-Mar-24 09:31N 37°43' W 009°34'1414.3
2015-Mar-24 08:33N 37°29' W 009°30'7014.1
2015-Mar-24 03:32N 36°36' W 008°33'15419.3
2015-Mar-23 19:33N 35°60' W 005°27'28221.2
2015-Mar-23 06:16N 36°42' E 000°19'  

Dump ship's entire track history